Time;durP1;ratioP1;P1;durP2;ratioP2;P2;SDS_P1;SDS_P2;PMS_P1;PMS_P2;Temp;Humidity;BMP_temperature;BMP_pressure;BME280_temperature;BME280_humidity;BME280_pressure;Samples;Min_cycle;Max_cycle;Signal;HPM_P1;HPM_P2
2021/12/12 00:02:11;;;;;;;;;;;-0.40;99.90;;;;;;5036883;28;19927;-77
2021/12/12 00:04:39;;;;;;;;;;;-0.30;99.90;;;;;;5046421;28;19996;-77
2021/12/12 00:07:10;;;;;;;;;;;-0.40;99.90;;;;;;5045663;28;19920;-77
2021/12/12 00:09:41;;;;;;;;;;;-0.50;99.90;;;;;;5047512;28;19946;-77
2021/12/12 00:12:12;;;;;;;;;;;-0.60;99.90;;;;;;5042163;28;19921;-77
2021/12/12 00:14:39;;;;;;;;;;;-0.60;99.90;;;;;;5045430;28;20006;-77
2021/12/12 00:17:07;;;;;;;;;;;-0.70;99.90;;;;;;5044747;28;20306;-77
2021/12/12 00:19:35;;;;;;;;;;;-0.70;99.90;;;;;;5047071;28;19931;-78
2021/12/12 00:22:05;;;;;;;;;;;-0.70;99.90;;;;;;5046235;28;20007;-78
2021/12/12 00:24:33;;;;;;;;;;;-0.70;99.90;;;;;;5046149;28;19920;-77
2021/12/12 00:27:00;;;;;;;;;;;-0.50;99.90;;;;;;5047173;28;19921;-77
2021/12/12 00:29:27;;;;;;;;;;;-0.50;99.90;;;;;;5047591;28;20023;-78
2021/12/12 00:31:57;;;;;;;;;;;-0.50;99.90;;;;;;5039632;28;19944;-76
2021/12/12 00:34:25;;;;;;;;;;;-0.50;99.90;;;;;;5047426;28;20031;-78
2021/12/12 00:36:52;;;;;;;;;;;-0.50;99.90;;;;;;5045634;28;20011;-77
2021/12/12 00:39:23;;;;;;;;;;;-0.50;99.90;;;;;;5046636;28;20038;-77
2021/12/12 00:41:54;;;;;;;;;;;-0.50;99.90;;;;;;5046211;28;19935;-77
2021/12/12 00:44:21;;;;;;;;;;;-0.40;99.90;;;;;;5052135;28;19939;-77
2021/12/12 00:46:48;;;;;;;;;;;-0.20;99.90;;;;;;5045017;28;20015;-77
2021/12/12 00:49:17;;;;;;;;;;;-0.20;99.90;;;;;;5045480;28;20197;-77
2021/12/12 00:51:45;;;;;;;;;;;-0.20;99.90;;;;;;5047566;28;19929;-77
2021/12/12 00:54:15;;;;;;;;;;;-0.30;99.90;;;;;;5045369;28;19946;-77
2021/12/12 00:56:47;;;;;;;;;;;-0.40;99.90;;;;;;5047934;28;19943;-75
2021/12/12 00:59:14;;;;;;;;;;;-0.50;99.90;;;;;;5049851;28;19925;-75
2021/12/12 01:01:45;;;;;;;;;;;-0.60;99.90;;;;;;5050624;28;19925;-75
2021/12/12 01:04:38;;;;;;;;;;;-0.60;99.90;;;;;;5051103;28;20371;-75
2021/12/12 01:07:11;;;;;;;;;;;-0.60;99.90;;;;;;5051370;28;19931;-75
2021/12/12 01:09:41;;;;;;;;;;;-0.60;99.90;;;;;;5054117;28;20027;-76
2021/12/12 01:12:10;;;;;;;;;;;-0.60;99.90;;;;;;5049571;28;20019;-76
2021/12/12 01:14:41;;;;;;;;;;;-0.60;99.90;;;;;;5048643;28;19924;-75
2021/12/12 01:17:19;;;;;;;;;;;-0.60;99.90;;;;;;5044491;28;20015;-76
2021/12/12 01:19:50;;;;;;;;;;;-0.60;99.90;;;;;;5054099;28;20003;-76
2021/12/12 01:22:24;;;;;;;;;;;-0.60;99.90;;;;;;5052575;28;19929;-76
2021/12/12 01:24:51;;;;;;;;;;;-0.60;99.90;;;;;;5049153;28;19924;-76
2021/12/12 01:27:19;;;;;;;;;;;-0.70;99.90;;;;;;5050074;28;20296;-76
2021/12/12 01:29:49;;;;;;;;;;;-0.60;99.90;;;;;;5048401;28;20015;-76
2021/12/12 01:32:25;;;;;;;;;;;-0.70;99.90;;;;;;5042265;28;19938;-77
2021/12/12 01:34:54;;;;;;;;;;;-0.70;99.90;;;;;;5044109;28;19931;-76
2021/12/12 01:40:16;;;;;;;;;;;-0.80;99.90;;;;;;5044449;28;20018;-76
2021/12/12 01:42:45;;;;;;;;;;;-0.80;99.90;;;;;;5051196;28;19929;-76
2021/12/12 01:45:16;;;;;;;;;;;-0.80;99.90;;;;;;5049678;28;19925;-77
2021/12/12 01:47:57;;;;;;;;;;;-0.80;99.90;;;;;;5050213;28;20399;-76
2021/12/12 01:50:24;;;;;;;;;;;-0.80;99.90;;;;;;5046940;28;19924;-76
2021/12/12 01:52:51;;;;;;;;;;;-0.90;99.90;;;;;;5040120;28;19976;-76
2021/12/12 01:55:29;;;;;;;;;;;-1.10;99.90;;;;;;5042977;28;19979;-76
2021/12/12 01:58:00;;;;;;;;;;;-1.20;99.90;;;;;;5043268;28;19924;-76
2021/12/12 02:00:42;;;;;;;;;;;-1.30;99.90;;;;;;5037134;28;19932;-76
2021/12/12 02:03:15;;;;;;;;;;;-1.30;99.90;;;;;;5051677;28;20000;-77
2021/12/12 02:05:42;;;;;;;;;;;-1.30;99.90;;;;;;5047800;28;19968;-76
2021/12/12 02:08:10;;;;;;;;;;;-1.30;99.90;;;;;;5048859;28;20011;-76
2021/12/12 02:10:42;;;;;;;;;;;-1.50;99.90;;;;;;5048383;28;19928;-76
2021/12/12 02:13:12;;;;;;;;;;;-1.50;99.90;;;;;;5049734;28;20420;-76
2021/12/12 02:15:39;;;;;;;;;;;-1.50;99.90;;;;;;5037844;28;19981;-77
2021/12/12 02:18:10;;;;;;;;;;;-1.40;99.90;;;;;;5044308;28;19937;-77
2021/12/12 02:20:45;;;;;;;;;;;-1.30;99.90;;;;;;5048585;28;20359;-77
2021/12/12 02:37:04;;;;;;;;;;;-1.10;99.90;;;;;;5045876;28;19932;-77
2021/12/12 02:39:32;;;;;;;;;;;-1.00;99.90;;;;;;5050357;28;19925;-77
2021/12/12 02:42:01;;;;;;;;;;;-1.00;99.90;;;;;;5038352;28;20020;-77
2021/12/12 02:44:30;;;;;;;;;;;-0.90;99.90;;;;;;5047824;28;19932;-76
2021/12/12 02:46:59;;;;;;;;;;;-0.90;99.90;;;;;;5048482;28;19931;-76
2021/12/12 02:49:40;;;;;;;;;;;-1.00;99.90;;;;;;5047892;28;19936;-76
2021/12/12 02:52:09;;;;;;;;;;;-1.10;99.90;;;;;;5049730;28;20288;-76
2021/12/12 02:54:36;;;;;;;;;;;-1.20;99.90;;;;;;5048982;28;19931;-75
2021/12/12 02:57:03;;;;;;;;;;;-1.20;99.90;;;;;;5049862;28;20698;-76
2021/12/12 02:59:30;;;;;;;;;;;-1.30;99.90;;;;;;5045602;28;19952;-76
2021/12/12 03:02:02;;;;;;;;;;;-1.40;99.90;;;;;;5047862;28;19931;-76
2021/12/12 03:04:29;;;;;;;;;;;-1.50;99.90;;;;;;5037972;28;20007;-77
2021/12/12 03:06:57;;;;;;;;;;;-1.50;99.90;;;;;;5036716;28;19971;-76
2021/12/12 03:09:26;;;;;;;;;;;-1.50;99.90;;;;;;5049153;28;19925;-77
2021/12/12 03:11:55;;;;;;;;;;;-1.50;99.90;;;;;;5047097;28;19978;-75
2021/12/12 03:14:22;;;;;;;;;;;-1.40;99.90;;;;;;5046413;28;20029;-77
2021/12/12 03:16:49;;;;;;;;;;;-1.30;99.90;;;;;;5042850;28;19932;-77
2021/12/12 03:19:20;;;;;;;;;;;-1.20;99.90;;;;;;5047294;28;19929;-77
2021/12/12 03:21:47;;;;;;;;;;;-1.20;99.90;;;;;;5038700;28;20447;-77
2021/12/12 03:24:16;;;;;;;;;;;-1.20;99.90;;;;;;5045241;28;19939;-77
2021/12/12 03:26:43;;;;;;;;;;;-1.10;99.90;;;;;;5045872;28;20014;-77
2021/12/12 03:29:11;;;;;;;;;;;-1.00;99.90;;;;;;5044448;28;19931;-77
2021/12/12 03:31:40;;;;;;;;;;;-0.90;99.90;;;;;;5044564;28;20109;-77
2021/12/12 03:34:09;;;;;;;;;;;-0.80;99.90;;;;;;5028549;28;19948;-77
2021/12/12 03:36:38;;;;;;;;;;;-0.70;99.90;;;;;;5048148;28;19937;-77
2021/12/12 03:39:09;;;;;;;;;;;-0.60;99.90;;;;;;5046381;28;19925;-77
2021/12/12 03:41:36;;;;;;;;;;;-0.60;99.90;;;;;;5046303;28;19924;-76
2021/12/12 03:44:08;;;;;;;;;;;-0.50;99.90;;;;;;5047419;28;19925;-77
2021/12/12 03:46:36;;;;;;;;;;;-0.50;99.90;;;;;;5057768;28;20020;-77
2021/12/12 03:49:05;;;;;;;;;;;-0.40;99.90;;;;;;5047904;28;19960;-77
2021/12/12 03:51:32;;;;;;;;;;;-0.40;99.90;;;;;;5046822;28;19931;-80
2021/12/12 03:53:59;;;;;;;;;;;-0.40;99.90;;;;;;5043958;28;20013;-81
2021/12/12 03:56:26;;;;;;;;;;;-0.50;99.90;;;;;;5045031;28;19925;-80
2021/12/12 03:58:59;;;;;;;;;;;-0.50;99.90;;;;;;5049779;28;20032;-80
2021/12/12 04:01:30;;;;;;;;;;;-0.50;99.90;;;;;;5040922;28;20447;-80
2021/12/12 04:04:00;;;;;;;;;;;-0.60;99.90;;;;;;5046651;28;20011;-80
2021/12/12 04:06:27;;;;;;;;;;;-0.60;99.90;;;;;;5044386;28;19925;-80
2021/12/12 04:08:54;;;;;;;;;;;-0.60;99.90;;;;;;5043716;28;19925;-80
2021/12/12 04:11:23;;;;;;;;;;;-0.60;99.90;;;;;;5047940;28;19928;-80
2021/12/12 04:13:51;;;;;;;;;;;-0.60;99.90;;;;;;5044747;28;19935;-80
2021/12/12 04:16:18;;;;;;;;;;;-0.60;99.90;;;;;;5047564;28;20441;-80
2021/12/12 04:18:45;;;;;;;;;;;-0.60;99.90;;;;;;5047696;28;19928;-80
2021/12/12 04:21:17;;;;;;;;;;;-0.60;99.90;;;;;;5047088;28;20382;-80
2021/12/12 04:23:43;;;;;;;;;;;-0.60;99.90;;;;;;5045219;28;19935;-81
2021/12/12 04:26:15;;;;;;;;;;;-0.50;99.90;;;;;;5047244;28;19979;-80
2021/12/12 04:28:42;;;;;;;;;;;-0.50;99.90;;;;;;5040314;28;20015;-80
2021/12/12 04:31:09;;;;;;;;;;;-0.50;99.90;;;;;;5044575;28;19929;-80
2021/12/12 04:33:36;;;;;;;;;;;-0.40;99.90;;;;;;5050867;28;19935;-80
2021/12/12 04:36:04;;;;;;;;;;;-0.50;99.90;;;;;;5050405;28;19925;-80
2021/12/12 04:38:30;;;;;;;;;;;-0.50;99.90;;;;;;5049062;28;19935;-81
2021/12/12 04:40:57;;;;;;;;;;;-0.50;99.90;;;;;;5050826;28;19931;-80
2021/12/12 04:43:24;;;;;;;;;;;-0.50;99.90;;;;;;5043980;28;19931;-81
2021/12/12 04:46:07;;;;;;;;;;;-0.40;99.90;;;;;;5035345;28;19935;-81
2021/12/12 04:51:47;;;;;;;;;;;-0.30;99.90;;;;;;5048158;28;19928;-80
2021/12/12 04:54:22;;;;;;;;;;;-0.30;99.90;;;;;;5050621;28;19931;-81
2021/12/12 04:56:54;;;;;;;;;;;-0.30;99.90;;;;;;5049227;28;19992;-81
2021/12/12 04:59:42;;;;;;;;;;;-0.30;99.90;;;;;;5051766;28;19956;-80
2021/12/12 05:02:26;;;;;;;;;;;-0.30;99.90;;;;;;5035509;28;19949;-81
2021/12/12 05:05:04;;;;;;;;;;;-0.30;99.90;;;;;;5048179;28;19937;-81
2021/12/12 05:07:53;;;;;;;;;;;-0.30;99.90;;;;;;5050288;28;20425;-81
2021/12/12 05:10:23;;;;;;;;;;;-0.20;99.90;;;;;;5062011;28;20469;-80
2021/12/12 05:12:52;;;;;;;;;;;-0.20;99.90;;;;;;5048719;28;21881;-81
2021/12/12 05:15:22;;;;;;;;;;;-0.20;99.90;;;;;;5048990;28;20417;-80
2021/12/12 05:17:51;;;;;;;;;;;-0.20;99.90;;;;;;5044490;28;20347;-80
2021/12/12 05:20:20;;;;;;;;;;;-0.20;99.90;;;;;;5049284;28;20350;-80
2021/12/12 05:22:51;;;;;;;;;;;-0.20;99.90;;;;;;5051225;28;19934;-80
2021/12/12 05:25:20;;;;;;;;;;;-0.20;99.90;;;;;;5049237;28;20344;-80
2021/12/12 05:27:52;;;;;;;;;;;-0.20;99.90;;;;;;5050034;28;19940;-80
2021/12/12 05:30:22;;;;;;;;;;;-0.20;99.90;;;;;;5045075;28;20011;-80
2021/12/12 05:32:49;;;;;;;;;;;-0.20;99.90;;;;;;5046588;28;19936;-81
2021/12/12 05:35:18;;;;;;;;;;;-0.20;99.90;;;;;;5049571;28;20462;-80
2021/12/12 05:37:49;;;;;;;;;;;-0.10;99.90;;;;;;5034616;28;19925;-80
2021/12/12 05:40:16;;;;;;;;;;;-0.10;99.90;;;;;;5050051;28;20354;-80
2021/12/12 05:42:43;;;;;;;;;;;-0.10;99.90;;;;;;5052133;28;20333;-81
2021/12/12 05:45:10;;;;;;;;;;;-0.10;99.90;;;;;;5048492;28;19986;-80
2021/12/12 05:47:37;;;;;;;;;;;-0.10;99.90;;;;;;5049740;28;19990;-80
2021/12/12 05:50:05;;;;;;;;;;;-0.10;99.90;;;;;;5048875;28;20311;-81
2021/12/12 05:52:32;;;;;;;;;;;-0.10;99.90;;;;;;5047849;28;19931;-80
2021/12/12 05:54:59;;;;;;;;;;;-0.10;99.90;;;;;;5048957;28;19956;-80
2021/12/12 05:57:27;;;;;;;;;;;-0.10;99.90;;;;;;5045282;28;19925;-80
2021/12/12 05:59:55;;;;;;;;;;;-0.10;99.90;;;;;;5047499;28;20343;-80
2021/12/12 06:02:25;;;;;;;;;;;-0.10;99.90;;;;;;5048900;28;19932;-80
2021/12/12 06:04:57;;;;;;;;;;;-0.10;99.90;;;;;;5047741;28;19933;-80
2021/12/12 06:07:25;;;;;;;;;;;-0.10;99.90;;;;;;5048299;28;19932;-80
2021/12/12 06:09:52;;;;;;;;;;;-0.20;99.90;;;;;;5053629;28;19926;-81
2021/12/12 06:12:19;;;;;;;;;;;-0.20;99.90;;;;;;5051195;28;20375;-80
2021/12/12 06:14:47;;;;;;;;;;;-0.20;99.90;;;;;;5048617;28;20405;-80
2021/12/12 06:17:15;;;;;;;;;;;-0.20;99.90;;;;;;5043005;28;19925;-80
2021/12/12 06:19:43;;;;;;;;;;;-0.20;99.90;;;;;;5046931;28;20306;-80
2021/12/12 06:22:10;;;;;;;;;;;-0.20;99.90;;;;;;5047879;28;19931;-80
2021/12/12 06:24:37;;;;;;;;;;;-0.20;99.90;;;;;;5047562;28;19925;-80
2021/12/12 06:27:06;;;;;;;;;;;-0.20;99.90;;;;;;5063681;28;20140;-80
2021/12/12 06:29:32;;;;;;;;;;;-0.20;99.90;;;;;;5049982;28;19931;-80
2021/12/12 06:31:59;;;;;;;;;;;-0.30;99.90;;;;;;5049026;28;19924;-80
2021/12/12 06:34:26;;;;;;;;;;;-0.20;99.90;;;;;;5045701;28;20306;-81
2021/12/12 06:36:53;;;;;;;;;;;-0.20;99.90;;;;;;5048498;28;20023;-80
2021/12/12 06:39:25;;;;;;;;;;;-0.10;99.90;;;;;;5047143;28;19932;-80
2021/12/12 06:41:52;;;;;;;;;;;-0.10;99.90;;;;;;5048196;28;20406;-80
2021/12/12 06:44:21;;;;;;;;;;;0.00;99.90;;;;;;5047619;28;19925;-80
2021/12/12 06:46:48;;;;;;;;;;;0.00;99.90;;;;;;5045695;28;19935;-81
2021/12/12 06:49:17;;;;;;;;;;;0.10;99.90;;;;;;5044845;28;19933;-80
2021/12/12 06:51:48;;;;;;;;;;;0.10;99.90;;;;;;5037451;28;20164;-80
2021/12/12 06:54:19;;;;;;;;;;;0.10;99.90;;;;;;5053493;28;19936;-81
2021/12/12 06:56:47;;;;;;;;;;;0.20;99.90;;;;;;5047540;28;20298;-81
2021/12/12 06:59:14;;;;;;;;;;;0.20;99.90;;;;;;5046884;28;20413;-80
2021/12/12 07:01:41;;;;;;;;;;;0.30;99.90;;;;;;5053881;28;20029;-80
2021/12/12 07:04:09;;;;;;;;;;;0.30;99.90;;;;;;5052813;28;19925;-80
2021/12/12 07:06:36;;;;;;;;;;;0.40;99.90;;;;;;5052162;28;20103;-80
2021/12/12 07:09:05;;;;;;;;;;;0.40;99.90;;;;;;5048873;28;20007;-80
2021/12/12 07:11:32;;;;;;;;;;;0.40;99.90;;;;;;5036691;28;19925;-80
2021/12/12 07:13:59;;;;;;;;;;;0.50;99.90;;;;;;5050983;28;19925;-80
2021/12/12 07:16:26;;;;;;;;;;;0.50;99.90;;;;;;5052345;28;19951;-80
2021/12/12 07:18:53;;;;;;;;;;;0.50;99.90;;;;;;5051392;28;19925;-80
2021/12/12 07:21:21;;;;;;;;;;;0.60;99.90;;;;;;5050893;28;19976;-80
2021/12/12 07:23:49;;;;;;;;;;;0.60;99.90;;;;;;5052714;28;20031;-80
2021/12/12 07:26:17;;;;;;;;;;;0.70;99.90;;;;;;5048346;28;19931;-80
2021/12/12 07:28:44;;;;;;;;;;;0.70;99.90;;;;;;5051434;28;20015;-80
2021/12/12 07:31:16;;;;;;;;;;;0.70;99.90;;;;;;5052469;28;19925;-80
2021/12/12 07:33:44;;;;;;;;;;;0.70;99.90;;;;;;5050698;28;20055;-80
2021/12/12 07:36:12;;;;;;;;;;;0.70;99.90;;;;;;5052318;28;19935;-80
2021/12/12 07:38:43;;;;;;;;;;;0.80;99.90;;;;;;5051532;28;20003;-79
2021/12/12 07:41:12;;;;;;;;;;;0.80;99.90;;;;;;5050013;28;19937;-80
2021/12/12 07:43:39;;;;;;;;;;;0.80;99.90;;;;;;5051295;28;20015;-80
2021/12/12 07:46:06;;;;;;;;;;;0.90;99.90;;;;;;5056713;28;20313;-80
2021/12/12 07:48:39;;;;;;;;;;;0.90;99.90;;;;;;5050646;28;19925;-80
2021/12/12 07:51:07;;;;;;;;;;;0.90;99.90;;;;;;5051389;28;19931;-80
2021/12/12 07:53:34;;;;;;;;;;;1.00;99.90;;;;;;5042913;28;19935;-80
2021/12/12 07:56:00;;;;;;;;;;;1.00;99.90;;;;;;5049538;28;20433;-80
2021/12/12 07:58:28;;;;;;;;;;;1.00;99.90;;;;;;5048300;28;19925;-80
2021/12/12 08:01:00;;;;;;;;;;;1.00;99.90;;;;;;5052654;28;19992;-80
2021/12/12 08:03:29;;;;;;;;;;;1.10;99.90;;;;;;5047147;28;19925;-80
2021/12/12 08:05:56;;;;;;;;;;;1.20;99.90;;;;;;5050720;28;19915;-80
2021/12/12 08:08:24;;;;;;;;;;;1.20;99.90;;;;;;5072299;28;19913;-80
2021/12/12 08:10:51;;;;;;;;;;;1.30;99.90;;;;;;5059389;28;19996;-80
2021/12/12 08:13:18;;;;;;;;;;;1.30;99.90;;;;;;5065826;28;19956;-80
2021/12/12 08:15:46;;;;;;;;;;;1.40;99.90;;;;;;5060093;28;20023;-79
2021/12/12 08:18:15;;;;;;;;;;;1.40;99.90;;;;;;5061461;28;19924;-79
2021/12/12 08:20:47;;;;;;;;;;;1.50;99.90;;;;;;5063199;28;19987;-79
2021/12/12 08:23:19;;;;;;;;;;;1.50;99.90;;;;;;5060215;28;20403;-79
2021/12/12 08:25:47;;;;;;;;;;;1.60;99.90;;;;;;5072785;28;19928;-79
2021/12/12 08:28:14;;;;;;;;;;;1.60;99.90;;;;;;5049709;28;20362;-79
2021/12/12 08:30:41;;;;;;;;;;;1.60;99.90;;;;;;5048034;28;19929;-79
2021/12/12 08:33:08;;;;;;;;;;;1.60;99.90;;;;;;5047700;28;20027;-79
2021/12/12 08:35:37;;;;;;;;;;;1.70;99.90;;;;;;5046196;28;19964;-79
2021/12/12 08:38:05;;;;;;;;;;;1.80;99.90;;;;;;5045902;28;19939;-79
2021/12/12 08:40:34;;;;;;;;;;;1.80;99.90;;;;;;5035569;28;20444;-80
2021/12/12 08:43:02;;;;;;;;;;;1.90;99.90;;;;;;5045070;28;19959;-79
2021/12/12 08:45:32;;;;;;;;;;;1.90;99.90;;;;;;5047930;28;20213;-79
2021/12/12 08:48:00;;;;;;;;;;;1.90;99.90;;;;;;5048768;28;20364;-79
2021/12/12 08:50:32;;;;;;;;;;;1.90;99.90;;;;;;5043676;28;19929;-79
2021/12/12 08:53:02;;;;;;;;;;;2.00;99.90;;;;;;5041784;28;19932;-79
2021/12/12 08:55:35;;;;;;;;;;;2.00;99.90;;;;;;5049963;28;19925;-79
2021/12/12 08:58:26;;;;;;;;;;;2.00;99.90;;;;;;5044720;28;20019;-79
2021/12/12 09:00:54;;;;;;;;;;;2.10;99.90;;;;;;5046771;28;20314;-79
2021/12/12 09:03:30;;;;;;;;;;;2.10;99.90;;;;;;5048417;28;19925;-79
2021/12/12 09:05:56;;;;;;;;;;;2.20;99.90;;;;;;5048055;28;19936;-79
2021/12/12 09:08:34;;;;;;;;;;;2.30;99.90;;;;;;5048142;28;20415;-79
2021/12/12 09:11:04;;;;;;;;;;;2.40;99.90;;;;;;5066727;28;20321;-80
2021/12/12 09:13:37;;;;;;;;;;;2.50;99.90;;;;;;5063785;28;20015;-77
2021/12/12 09:16:04;;;;;;;;;;;2.60;99.90;;;;;;5052488;28;20032;-78
2021/12/12 09:18:36;;;;;;;;;;;2.70;99.90;;;;;;5055057;28;19931;-78
2021/12/12 09:21:10;;;;;;;;;;;2.70;99.90;;;;;;5035445;28;20292;-78
2021/12/12 09:23:45;;;;;;;;;;;2.90;99.90;;;;;;5052290;28;19931;-77
2021/12/12 09:26:14;;;;;;;;;;;2.90;99.90;;;;;;5059581;28;20047;-78
2021/12/12 09:28:44;;;;;;;;;;;3.00;99.90;;;;;;5069062;28;19924;-77
2021/12/12 09:31:14;;;;;;;;;;;3.00;99.90;;;;;;5068306;28;19928;-78
2021/12/12 09:33:52;;;;;;;;;;;3.10;99.90;;;;;;5061053;28;19924;-78
2021/12/12 09:36:21;;;;;;;;;;;3.10;99.90;;;;;;5048515;28;20149;-78
2021/12/12 09:38:51;;;;;;;;;;;3.20;99.90;;;;;;5055232;28;19931;-78
2021/12/12 09:41:26;;;;;;;;;;;3.20;99.90;;;;;;5051679;28;19925;-77
2021/12/12 09:44:02;;;;;;;;;;;3.30;99.90;;;;;;5056549;28;19931;-77
2021/12/12 09:47:26;;;;;;;;;;;3.40;99.90;;;;;;5071528;28;20379;-78
2021/12/12 09:53:23;;;;;;;;;;;3.70;99.90;;;;;;5075013;28;20198;-77
2021/12/12 09:55:53;;;;;;;;;;;3.70;99.90;;;;;;5065276;28;19935;-78
2021/12/12 09:58:27;;;;;;;;;;;3.70;99.90;;;;;;5068239;28;19925;-78
2021/12/12 10:00:58;;;;;;;;;;;3.80;99.90;;;;;;5074340;28;20132;-78
2021/12/12 10:03:43;;;;;;;;;;;3.80;99.90;;;;;;5056302;28;19932;-80
2021/12/12 10:06:29;;;;;;;;;;;3.80;99.90;;;;;;5065725;28;20047;-78
2021/12/12 10:09:04;;;;;;;;;;;3.90;99.90;;;;;;5064542;28;20019;-77
2021/12/12 10:11:33;;;;;;;;;;;3.90;99.90;;;;;;5056668;28;19925;-78
2021/12/12 10:14:05;;;;;;;;;;;3.90;99.90;;;;;;5069025;28;19935;-78
2021/12/12 10:16:42;;;;;;;;;;;3.80;99.90;;;;;;5075006;28;20425;-78
2021/12/12 10:19:27;;;;;;;;;;;3.80;99.90;;;;;;5071167;28;19933;-79
2021/12/12 10:22:02;;;;;;;;;;;3.80;99.90;;;;;;5052584;28;20621;-78
2021/12/12 10:24:33;;;;;;;;;;;3.90;99.90;;;;;;5052306;28;19928;-78
2021/12/12 10:27:00;;;;;;;;;;;4.10;99.90;;;;;;5050190;28;20279;-78
2021/12/12 10:29:30;;;;;;;;;;;4.10;99.90;;;;;;5050642;28;19931;-79
2021/12/12 10:31:58;;;;;;;;;;;4.20;99.90;;;;;;5045182;28;19925;-78
2021/12/12 10:34:27;;;;;;;;;;;4.20;99.90;;;;;;5050731;28;19924;-79
2021/12/12 10:37:00;;;;;;;;;;;4.30;99.90;;;;;;5052006;28;19929;-79
2021/12/12 10:39:31;;;;;;;;;;;4.30;99.90;;;;;;5050091;28;20295;-78
2021/12/12 10:42:09;;;;;;;;;;;4.10;99.90;;;;;;5053013;28;19925;-78
2021/12/12 10:45:15;;;;;;;;;;;3.90;99.90;;;;;;5066576;28;20441;-79
2021/12/12 10:48:00;;;;;;;;;;;3.80;99.90;;;;;;5063393;28;20309;-78
2021/12/12 10:50:31;;;;;;;;;;;3.80;99.90;;;;;;5052568;28;20031;-79
2021/12/12 10:53:02;;;;;;;;;;;4.00;99.90;;;;;;5036013;28;20088;-79
2021/12/12 10:55:48;;;;;;;;;;;4.10;99.90;;;;;;5042919;28;19925;-78
2021/12/12 10:58:18;;;;;;;;;;;4.20;99.90;;;;;;5039284;28;20027;-79
2021/12/12 11:00:48;;;;;;;;;;;4.20;99.90;;;;;;5029710;28;19925;-79
2021/12/12 11:03:27;;;;;;;;;;;4.30;99.90;;;;;;5044067;28;19928;-80
2021/12/12 11:06:00;;;;;;;;;;;4.20;99.90;;;;;;5025373;28;20280;-79
2021/12/12 11:08:34;;;;;;;;;;;4.20;99.90;;;;;;5021293;28;19935;-79
2021/12/12 11:11:07;;;;;;;;;;;4.20;99.90;;;;;;5046721;28;19924;-79
2021/12/12 11:13:38;;;;;;;;;;;4.10;99.90;;;;;;5052907;28;19928;-81
2021/12/12 11:16:09;;;;;;;;;;;4.10;99.90;;;;;;5033490;28;19925;-79
2021/12/12 11:18:41;;;;;;;;;;;4.20;99.90;;;;;;5044494;28;19935;-79
2021/12/12 11:21:12;;;;;;;;;;;4.30;99.90;;;;;;5051525;28;20395;-79
2021/12/12 11:23:53;;;;;;;;;;;4.30;99.90;;;;;;5048522;28;19924;-79
2021/12/12 11:26:22;;;;;;;;;;;4.30;99.90;;;;;;5045333;28;19933;-79
2021/12/12 11:28:54;;;;;;;;;;;4.40;99.90;;;;;;5048207;28;19925;-78
2021/12/12 11:31:32;;;;;;;;;;;4.40;99.90;;;;;;5048972;28;19943;-79
2021/12/12 11:33:59;;;;;;;;;;;4.50;99.90;;;;;;5046146;28;19940;-78
2021/12/12 11:36:29;;;;;;;;;;;4.40;99.90;;;;;;5046416;28;19931;-78
2021/12/12 11:39:15;;;;;;;;;;;4.40;99.90;;;;;;5054475;28;20402;-76
2021/12/12 11:41:56;;;;;;;;;;;4.40;99.90;;;;;;5054012;28;19925;-76
2021/12/12 11:44:36;;;;;;;;;;;4.40;99.90;;;;;;5040151;28;20305;-76
2021/12/12 11:47:03;;;;;;;;;;;4.40;99.90;;;;;;5037210;28;20302;-78
2021/12/12 11:49:37;;;;;;;;;;;4.30;99.90;;;;;;5046259;28;19964;-78
2021/12/12 11:52:07;;;;;;;;;;;4.30;99.90;;;;;;5048951;28;19963;-78
2021/12/12 11:54:55;;;;;;;;;;;4.30;99.90;;;;;;5046998;28;19925;-78
2021/12/12 11:57:24;;;;;;;;;;;4.30;99.90;;;;;;5046521;28;20427;-78
2021/12/12 12:00:15;;;;;;;;;;;4.30;99.90;;;;;;5044132;28;19931;-78
2021/12/12 12:03:00;;;;;;;;;;;4.40;99.90;;;;;;5044824;28;19951;-78
2021/12/12 12:05:45;;;;;;;;;;;4.40;99.90;;;;;;5044600;28;19925;-78
2021/12/12 12:08:12;;;;;;;;;;;4.40;99.90;;;;;;5041902;28;20389;-78
2021/12/12 12:10:47;;;;;;;;;;;4.40;99.90;;;;;;5046816;28;19951;-78
2021/12/12 12:13:15;;;;;;;;;;;4.30;99.90;;;;;;5040100;28;19935;-78
2021/12/12 12:15:41;;;;;;;;;;;4.30;99.90;;;;;;5047681;28;19921;-79
2021/12/12 12:18:26;;;;;;;;;;;4.30;99.90;;;;;;5043187;28;20007;-79
2021/12/12 12:20:57;;;;;;;;;;;4.30;99.90;;;;;;5064798;28;19925;-79
2021/12/12 12:23:41;;;;;;;;;;;4.30;99.90;;;;;;5047683;28;20006;-78
2021/12/12 12:29:02;;;;;;;;;;;4.30;99.90;;;;;;5042144;28;19921;-78
2021/12/12 12:31:36;;;;;;;;;;;4.30;99.90;;;;;;5045151;28;19931;-79
2021/12/12 12:34:22;;;;;;;;;;;4.30;99.90;;;;;;5044745;28;19924;-78
2021/12/12 12:37:07;;;;;;;;;;;4.30;99.90;;;;;;5043857;28;19925;-79
2021/12/12 12:39:34;;;;;;;;;;;4.30;99.90;;;;;;5047441;28;19920;-78
2021/12/12 12:42:21;;;;;;;;;;;4.30;99.90;;;;;;5047409;28;20011;-78
2021/12/12 12:44:57;;;;;;;;;;;4.30;99.90;;;;;;5045212;28;19921;-79
2021/12/12 12:47:42;;;;;;;;;;;4.30;99.90;;;;;;5053433;28;19936;-78
2021/12/12 12:50:31;;;;;;;;;;;4.30;99.90;;;;;;5047049;28;20325;-78
2021/12/12 12:53:16;;;;;;;;;;;4.20;99.90;;;;;;5036740;28;20146;-79
2021/12/12 12:56:02;;;;;;;;;;;4.20;99.90;;;;;;5049371;28;20437;-78
2021/12/12 12:58:31;;;;;;;;;;;4.30;99.90;;;;;;5046465;28;19921;-78
2021/12/12 13:01:04;;;;;;;;;;;4.20;99.90;;;;;;5049812;28;19921;-78
2021/12/12 13:03:36;;;;;;;;;;;4.20;99.90;;;;;;5049203;28;20410;-78
2021/12/12 13:06:04;;;;;;;;;;;4.30;99.90;;;;;;5047309;28;20438;-79
2021/12/12 13:08:53;;;;;;;;;;;4.20;99.90;;;;;;5047624;28;20008;-78
2021/12/12 13:11:22;;;;;;;;;;;4.20;99.90;;;;;;5048676;28;20228;-78
2021/12/12 13:13:52;;;;;;;;;;;4.20;99.90;;;;;;5048958;28;20374;-76
2021/12/12 13:16:37;;;;;;;;;;;4.30;99.90;;;;;;5042892;28;20033;-76
2021/12/12 13:19:05;;;;;;;;;;;4.30;99.90;;;;;;5051907;28;19931;-76
2021/12/12 13:21:36;;;;;;;;;;;4.30;99.90;;;;;;5045721;28;20413;-78
2021/12/12 13:24:19;;;;;;;;;;;4.30;99.90;;;;;;5046739;28;20376;-78
2021/12/12 13:26:58;;;;;;;;;;;4.30;99.90;;;;;;5033487;28;19967;-78
2021/12/12 13:29:25;;;;;;;;;;;4.30;99.90;;;;;;5046533;28;19921;-78
2021/12/12 13:31:52;;;;;;;;;;;4.30;99.90;;;;;;5047990;28;19924;-78
2021/12/12 13:34:30;;;;;;;;;;;4.30;99.90;;;;;;5045260;28;20346;-78
2021/12/12 13:37:12;;;;;;;;;;;4.30;99.90;;;;;;5040386;28;20442;-79
2021/12/12 13:39:42;;;;;;;;;;;4.20;99.90;;;;;;5048921;28;19927;-78
2021/12/12 13:42:18;;;;;;;;;;;4.20;99.90;;;;;;5048461;28;19956;-78
2021/12/12 13:44:51;;;;;;;;;;;4.30;99.90;;;;;;5047303;28;19929;-78
2021/12/12 13:47:33;;;;;;;;;;;4.30;99.90;;;;;;5048313;28;20675;-78
2021/12/12 13:50:06;;;;;;;;;;;4.30;99.90;;;;;;5049184;28;20392;-78
2021/12/12 13:52:36;;;;;;;;;;;4.30;99.90;;;;;;5049374;28;19921;-78
2021/12/12 13:55:08;;;;;;;;;;;4.30;99.90;;;;;;5049123;28;19921;-78
2021/12/12 13:57:50;;;;;;;;;;;4.20;99.90;;;;;;5052720;28;20287;-78
2021/12/12 14:00:22;;;;;;;;;;;4.20;99.90;;;;;;5051217;28;19931;-79
2021/12/12 14:02:55;;;;;;;;;;;4.20;99.90;;;;;;5047142;28;20011;-78
2021/12/12 14:05:28;;;;;;;;;;;4.10;99.90;;;;;;5050331;28;20294;-79
2021/12/12 14:08:05;;;;;;;;;;;4.20;99.90;;;;;;5048509;28;19921;-79
2021/12/12 14:10:37;;;;;;;;;;;4.20;99.90;;;;;;5049060;28;20302;-78
2021/12/12 14:13:10;;;;;;;;;;;4.20;99.90;;;;;;5036508;28;19924;-78
2021/12/12 14:15:48;;;;;;;;;;;4.10;99.90;;;;;;5039031;28;20336;-78
2021/12/12 14:18:18;;;;;;;;;;;4.10;99.90;;;;;;5049274;28;20015;-78
2021/12/12 14:20:47;;;;;;;;;;;4.10;99.90;;;;;;5049050;28;20393;-78
2021/12/12 14:23:18;;;;;;;;;;;4.00;99.90;;;;;;5034732;28;19928;-78
2021/12/12 14:25:47;;;;;;;;;;;4.10;99.90;;;;;;5030181;28;20024;-78
2021/12/12 14:28:17;;;;;;;;;;;4.10;99.90;;;;;;5039711;28;19921;-78
2021/12/12 14:30:44;;;;;;;;;;;4.00;99.90;;;;;;5049186;28;19931;-78
2021/12/12 14:33:14;;;;;;;;;;;4.00;99.90;;;;;;5047853;28;19935;-78
2021/12/12 14:35:54;;;;;;;;;;;4.00;99.90;;;;;;5049327;28;19928;-79
2021/12/12 14:38:20;;;;;;;;;;;4.00;99.90;;;;;;5043771;28;19921;-79
2021/12/12 14:40:49;;;;;;;;;;;4.00;99.90;;;;;;5043730;28;19921;-79
2021/12/12 14:43:21;;;;;;;;;;;4.00;99.90;;;;;;5048424;28;19927;-79
2021/12/12 14:45:53;;;;;;;;;;;4.00;99.90;;;;;;5047811;28;19943;-79
2021/12/12 14:48:25;;;;;;;;;;;4.00;99.90;;;;;;5048468;28;19928;-79
2021/12/12 14:50:54;;;;;;;;;;;3.90;99.90;;;;;;5049373;28;20362;-79
2021/12/12 14:53:25;;;;;;;;;;;3.90;99.90;;;;;;5049429;28;20424;-79
2021/12/12 14:55:56;;;;;;;;;;;3.90;99.90;;;;;;5047485;28;20374;-79
2021/12/12 14:58:28;;;;;;;;;;;3.90;99.90;;;;;;5039226;28;19921;-79
2021/12/12 15:01:01;;;;;;;;;;;4.00;99.90;;;;;;5048325;28;19927;-80
2021/12/12 15:03:32;;;;;;;;;;;3.90;99.90;;;;;;5047085;28;20026;-79
2021/12/12 15:06:05;;;;;;;;;;;3.90;99.90;;;;;;5040541;28;19921;-79
2021/12/12 15:08:40;;;;;;;;;;;3.90;99.90;;;;;;5044663;28;20143;-79
2021/12/12 15:11:15;;;;;;;;;;;3.90;99.90;;;;;;5050636;28;19982;-79
2021/12/12 15:13:43;;;;;;;;;;;3.90;99.90;;;;;;5044924;28;19928;-79
2021/12/12 15:16:26;;;;;;;;;;;3.90;99.90;;;;;;5048972;28;20021;-79